Time,TemperatureF,DewpointF,PressureIn,WindDirection,WindDirectionDegrees,WindSpeedMPH,WindSpeedGustMPH,Humidity,HourlyPrecipIn,Conditions,Clouds,dailyrainin,SoftwareType,DateUTC
2013-01-11 00:07:00,27.3,24.0,30.49,NNW,333,0.0,-999.0,88,-99.99,,,0.00,weatherlink.com 1.10,2013-01-11 05:07:00,
2013-01-11 00:22:00,27.4,24.0,30.49,NNW,333,0.0,-999.0,87,-99.99,,,0.00,weatherlink.com 1.10,2013-01-11 05:22:00,
2013-01-11 00:37:00,26.6,24.0,30.49,NNW,333,0.0,-999.0,89,-99.99,,,0.00,weatherlink.com 1.10,2013-01-11 05:37:00,
2013-01-11 00:52:00,26.4,23.0,30.48,NNW,333,0.0,-999.0,88,-99.99,,,0.00,weatherlink.com 1.10,2013-01-11 05:52:00,
2013-01-11 01:07:00,25.9,23.0,30.47,NNW,333,0.0,-999.0,90,-99.99,,,0.00,weatherlink.com 1.10,2013-01-11 06:07:00,
2013-01-11 01:22:00,25.7,24.0,30.47,NNW,333,0.0,-999.0,91,-99.99,,,0.00,weatherlink.com 1.10,2013-01-11 06:22:00,
2013-01-11 01:37:00,25.4,23.0,30.47,NNW,333,0.0,-999.0,91,-99.99,,,0.00,weatherlink.com 1.10,2013-01-11 06:37:00,
2013-01-11 01:52:00,24.8,23.0,30.48,NNW,333,0.0,-999.0,91,-99.99,,,0.00,weatherlink.com 1.10,2013-01-11 06:52:00,
2013-01-11 02:07:00,24.3,22.0,30.47,NNW,333,0.0,-999.0,91,-99.99,,,0.00,weatherlink.com 1.10,2013-01-11 07:07:00,
2013-01-11 02:22:00,24.3,22.0,30.47,NNW,333,0.0,-999.0,92,-99.99,,,0.00,weatherlink.com 1.10,2013-01-11 07:22:00,
2013-01-11 02:37:00,23.8,22.0,30.47,NNW,333,0.0,-999.0,92,-99.99,,,0.00,weatherlink.com 1.10,2013-01-11 07:37:00,
2013-01-11 02:52:00,23.5,22.0,30.46,NNW,333,0.0,-999.0,93,-99.99,,,0.00,weatherlink.com 1.10,2013-01-11 07:52:00,
2013-01-11 03:08:00,23.2,22.0,30.46,NNW,333,0.0,-999.0,93,-99.99,,,0.00,weatherlink.com 1.10,2013-01-11 08:08:00,
2013-01-11 03:22:00,23.3,22.0,30.45,NNW,333,0.0,-999.0,93,-99.99,,,0.00,weatherlink.com 1.10,2013-01-11 08:22:00,
2013-01-11 03:37:00,23.3,22.0,30.45,NNW,333,0.0,-999.0,94,-99.99,,,0.00,weatherlink.com 1.10,2013-01-11 08:37:00,
2013-01-11 03:52:00,22.8,21.0,30.45,NNW,333,0.0,-999.0,94,-99.99,,,0.00,weatherlink.com 1.10,2013-01-11 08:52:00,
2013-01-11 04:07:00,22.7,21.0,30.45,NNW,333,0.0,-999.0,94,-99.99,,,0.00,weatherlink.com 1.10,2013-01-11 09:07:00,
2013-01-11 04:22:00,23.0,22.0,30.45,NNW,333,0.0,-999.0,94,-99.99,,,0.00,weatherlink.com 1.10,2013-01-11 09:22:00,
2013-01-11 04:52:00,22.5,21.0,30.44,NNW,333,0.0,-999.0,94,-99.99,,,0.00,weatherlink.com 1.10,2013-01-11 09:52:00,
2013-01-11 05:07:00,22.5,21.0,30.44,NNW,333,0.0,-999.0,94,-99.99,,,0.00,weatherlink.com 1.10,2013-01-11 10:07:00,
2013-01-11 05:22:00,22.4,21.0,30.44,NNW,333,0.0,-999.0,94,-99.99,,,0.00,weatherlink.com 1.10,2013-01-11 10:22:00,
2013-01-11 05:37:00,22.1,21.0,30.46,NNW,333,0.0,-999.0,94,-99.99,,,0.00,weatherlink.com 1.10,2013-01-11 10:37:00,
2013-01-11 05:52:00,22.1,21.0,30.46,NNW,333,0.0,-999.0,94,-99.99,,,0.00,weatherlink.com 1.10,2013-01-11 10:52:00,
2013-01-11 06:07:00,22.0,21.0,30.45,NNW,333,0.0,-999.0,94,-99.99,,,0.00,weatherlink.com 1.10,2013-01-11 11:07:00,
2013-01-11 06:22:00,22.1,21.0,30.45,NNW,333,0.0,-999.0,95,-99.99,,,0.00,weatherlink.com 1.10,2013-01-11 11:22:00,
2013-01-11 06:52:00,22.3,21.0,30.46,NNW,333,0.0,-999.0,95,-99.99,,,0.00,weatherlink.com 1.10,2013-01-11 11:52:00,
2013-01-11 07:07:00,22.5,21.0,30.47,NNW,333,0.0,-999.0,95,-99.99,,,0.00,weatherlink.com 1.10,2013-01-11 12:07:00,
2013-01-11 07:22:00,22.7,22.0,30.46,NNW,333,0.0,-999.0,95,-99.99,,,0.00,weatherlink.com 1.10,2013-01-11 12:22:00,
2013-01-11 07:37:00,22.9,22.0,30.47,NNW,333,0.0,-999.0,95,-99.99,,,0.00,weatherlink.com 1.10,2013-01-11 12:37:00,
2013-01-11 07:52:00,23.6,22.0,30.47,NNW,333,0.0,-999.0,95,-99.99,,,0.00,weatherlink.com 1.10,2013-01-11 12:52:00,
2013-01-11 08:07:00,24.2,23.0,30.46,NNW,333,0.0,-999.0,95,-99.99,,,0.00,weatherlink.com 1.10,2013-01-11 13:07:00,
2013-01-11 08:22:00,25.2,24.0,30.46,NNW,333,0.0,-999.0,95,-99.99,,,0.00,weatherlink.com 1.10,2013-01-11 13:22:00,
2013-01-11 08:37:00,26.0,25.0,30.46,NNW,333,0.0,-999.0,94,-99.99,,,0.00,weatherlink.com 1.10,2013-01-11 13:37:00,
2013-01-11 08:52:00,26.7,25.0,30.46,NNW,333,0.0,-999.0,93,-99.99,,,0.00,weatherlink.com 1.10,2013-01-11 13:52:00,
2013-01-11 09:07:00,28.3,26.0,30.45,NNW,333,0.0,-999.0,92,-99.99,,,0.00,weatherlink.com 1.10,2013-01-11 14:07:00,
2013-01-11 09:22:00,30.0,27.0,30.46,NNW,333,0.0,-999.0,87,-99.99,,,0.00,weatherlink.com 1.10,2013-01-11 14:22:00,
2013-01-11 09:37:00,31.6,27.0,30.46,NNW,333,0.0,-999.0,82,-99.99,,,0.00,weatherlink.com 1.10,2013-01-11 14:37:00,
2013-01-11 09:52:00,32.2,27.0,30.46,NNW,333,0.0,-999.0,80,-99.99,,,0.00,weatherlink.com 1.10,2013-01-11 14:52:00,
2013-01-11 10:07:00,33.3,27.0,30.46,NNW,333,0.0,-999.0,76,-99.99,,,0.00,weatherlink.com 1.10,2013-01-11 15:07:00,
2013-01-11 10:22:00,34.6,27.0,30.45,NNW,333,0.0,-999.0,74,-99.99,,,0.00,weatherlink.com 1.10,2013-01-11 15:22:00,
2013-01-11 10:37:00,36.0,27.0,30.44,NNW,333,0.0,-999.0,71,-99.99,,,0.00,weatherlink.com 1.10,2013-01-11 15:37:00,
2013-01-11 10:52:00,36.9,28.0,30.42,East,81,0.0,-999.0,71,-99.99,,,0.00,weatherlink.com 1.10,2013-01-11 15:52:00,
2013-01-11 11:07:00,37.5,28.0,30.41,East,85,0.0,-999.0,69,-99.99,,,0.00,weatherlink.com 1.10,2013-01-11 16:07:00,
2013-01-11 11:22:00,37.6,28.0,30.40,East,85,0.0,-999.0,69,-99.99,,,0.00,weatherlink.com 1.10,2013-01-11 16:22:00,
2013-01-11 11:37:00,37.8,29.0,30.39,SSE,153,0.0,-999.0,71,-99.99,,,0.00,weatherlink.com 1.10,2013-01-11 16:37:00,
2013-01-11 11:52:00,37.7,29.0,30.38,SSE,157,0.0,-999.0,70,-99.99,,,0.00,weatherlink.com 1.10,2013-01-11 16:52:00,
2013-01-11 12:07:00,37.9,29.0,30.38,SSE,159,0.0,-999.0,70,-99.99,,,0.00,weatherlink.com 1.10,2013-01-11 17:07:00,
2013-01-11 12:22:00,38.0,29.0,30.38,SSE,159,0.0,-999.0,71,-99.99,,,0.00,weatherlink.com 1.10,2013-01-11 17:22:00,
2013-01-11 12:37:00,38.2,29.0,30.38,SSE,159,0.0,-999.0,70,-99.99,,,0.00,weatherlink.com 1.10,2013-01-11 17:37:00,
2013-01-11 12:52:00,38.0,29.0,30.36,SSE,161,0.0,-999.0,70,-99.99,,,0.00,weatherlink.com 1.10,2013-01-11 17:52:00,
2013-01-11 13:07:00,38.1,29.0,30.36,SW,229,0.0,-999.0,70,-99.99,,,0.00,weatherlink.com 1.10,2013-01-11 18:07:00,
2013-01-11 13:22:00,38.2,29.0,30.36,South,190,0.0,-999.0,70,-99.99,,,0.00,weatherlink.com 1.10,2013-01-11 18:22:00,
2013-01-11 13:37:00,37.8,29.0,30.36,South,191,0.0,-999.0,70,-99.99,,,0.00,weatherlink.com 1.10,2013-01-11 18:37:00,
2013-01-11 13:52:00,37.9,29.0,30.34,South,191,0.0,-999.0,71,-99.99,,,0.00,weatherlink.com 1.10,2013-01-11 18:52:00,
2013-01-11 14:22:00,37.4,29.0,30.33,South,191,0.0,-999.0,71,-99.99,,,0.00,weatherlink.com 1.10,2013-01-11 19:22:00,
2013-01-11 14:37:00,37.0,29.0,30.33,South,191,0.0,-999.0,73,-99.99,,,0.00,weatherlink.com 1.10,2013-01-11 19:37:00,
2013-01-11 14:52:00,37.0,29.0,30.34,South,191,0.0,-999.0,74,-99.99,,,0.00,weatherlink.com 1.10,2013-01-11 19:52:00,
2013-01-11 15:07:00,36.7,30.0,30.31,South,191,0.0,-999.0,76,-99.99,,,0.00,weatherlink.com 1.10,2013-01-11 20:07:00,
2013-01-11 15:22:00,36.8,29.0,30.32,South,175,0.0,-999.0,74,-99.99,,,0.00,weatherlink.com 1.10,2013-01-11 20:22:00,
2013-01-11 15:37:00,36.2,30.0,30.31,South,175,0.0,-999.0,77,-99.99,,,0.00,weatherlink.com 1.10,2013-01-11 20:37:00,
2013-01-11 16:07:00,35.2,30.0,30.29,South,175,0.0,-999.0,81,-99.99,,,0.00,weatherlink.com 1.10,2013-01-11 21:07:00,
2013-01-11 16:22:00,34.7,30.0,30.29,South,175,0.0,-999.0,82,-99.99,,,0.00,weatherlink.com 1.10,2013-01-11 21:22:00,
2013-01-11 16:37:00,34.5,30.0,30.29,South,175,0.0,-999.0,82,-99.99,,,0.00,weatherlink.com 1.10,2013-01-11 21:37:00,
2013-01-11 16:52:00,34.5,30.0,30.28,South,175,0.0,-999.0,82,-99.99,,,0.00,weatherlink.com 1.10,2013-01-11 21:52:00,
2013-01-11 17:07:00,34.5,30.0,30.28,South,175,0.0,-999.0,82,-99.99,,,0.00,weatherlink.com 1.10,2013-01-11 22:07:00,
2013-01-11 17:22:00,34.4,30.0,30.27,South,175,0.0,-999.0,83,-99.99,,,0.00,weatherlink.com 1.10,2013-01-11 22:22:00,
2013-01-11 17:37:00,34.3,30.0,30.27,South,175,0.0,-999.0,83,-99.99,,,0.00,weatherlink.com 1.10,2013-01-11 22:37:00,
2013-01-11 17:52:00,34.2,30.0,30.27,South,175,0.0,-999.0,84,-99.99,,,0.00,weatherlink.com 1.10,2013-01-11 22:52:00,
2013-01-11 18:07:00,34.1,30.0,30.26,South,175,0.0,-999.0,86,-99.99,,,0.00,weatherlink.com 1.10,2013-01-11 23:07:00,
2013-01-11 18:22:00,33.9,31.0,30.26,South,175,0.0,-999.0,87,-99.99,,,0.00,weatherlink.com 1.10,2013-01-11 23:22:00,
2013-01-11 18:37:00,33.7,31.0,30.25,South,175,0.0,-999.0,88,-99.99,,,0.00,weatherlink.com 1.10,2013-01-11 23:37:00,
2013-01-11 18:52:00,33.6,31.0,30.25,South,175,0.0,-999.0,89,-99.99,,,0.00,weatherlink.com 1.10,2013-01-11 23:52:00,
2013-01-11 19:07:00,33.5,31.0,30.24,South,175,0.0,-999.0,90,-99.99,,,0.00,weatherlink.com 1.10,2013-01-12 00:07:00,
2013-01-11 19:22:00,33.4,31.0,30.24,South,178,0.0,-999.0,91,-99.99,,,0.00,weatherlink.com 1.10,2013-01-12 00:22:00,
2013-01-11 19:37:00,33.4,31.0,30.24,South,173,0.0,-999.0,92,-99.99,,,0.00,weatherlink.com 1.10,2013-01-12 00:37:00,
2013-01-11 19:52:00,33.3,31.0,30.23,South,173,0.0,-999.0,92,-99.99,,,0.00,weatherlink.com 1.10,2013-01-12 00:52:00,
2013-01-11 20:07:00,33.4,32.0,30.23,South,173,0.0,-999.0,93,-99.99,,,0.00,weatherlink.com 1.10,2013-01-12 01:07:00,
2013-01-11 20:22:00,33.4,32.0,30.23,South,173,0.0,-999.0,93,-99.99,,,0.02,weatherlink.com 1.10,2013-01-12 01:22:00,
2013-01-11 20:37:00,33.3,32.0,30.22,South,173,0.0,-999.0,93,-99.99,,,0.03,weatherlink.com 1.10,2013-01-12 01:37:00,
2013-01-11 20:52:00,33.4,32.0,30.21,South,171,0.0,-999.0,94,-99.99,,,0.04,weatherlink.com 1.10,2013-01-12 01:52:00,
2013-01-11 21:07:00,33.4,32.0,30.21,SSE,165,0.0,-999.0,94,-99.99,,,0.05,weatherlink.com 1.10,2013-01-12 02:07:00,
2013-01-11 21:22:00,33.5,32.0,30.20,SSE,150,0.0,-999.0,94,-99.99,,,0.06,weatherlink.com 1.10,2013-01-12 02:22:00,
2013-01-11 21:38:00,33.6,32.0,30.21,SSE,153,0.0,-999.0,94,-99.99,,,0.06,weatherlink.com 1.10,2013-01-12 02:38:00,
2013-01-11 21:52:00,33.8,33.0,30.20,SSE,153,0.0,-999.0,95,-99.99,,,0.06,weatherlink.com 1.10,2013-01-12 02:52:00,
2013-01-11 22:07:00,34.1,33.0,30.19,SE,126,0.0,-999.0,95,-99.99,,,0.07,weatherlink.com 1.10,2013-01-12 03:07:00,
2013-01-11 22:22:00,34.3,33.0,30.19,SE,134,0.0,-999.0,95,-99.99,,,0.07,weatherlink.com 1.10,2013-01-12 03:22:00,
2013-01-11 22:37:00,34.5,33.0,30.19,SE,135,0.0,-999.0,95,-99.99,,,0.07,weatherlink.com 1.10,2013-01-12 03:37:00,
2013-01-11 22:52:00,34.8,34.0,30.19,SE,135,0.0,-999.0,96,-99.99,,,0.07,weatherlink.com 1.10,2013-01-12 03:52:00,
2013-01-11 23:07:00,34.8,34.0,30.20,SE,135,0.0,-999.0,96,-99.99,,,0.08,weatherlink.com 1.10,2013-01-12 04:07:00,
2013-01-11 23:22:00,34.8,34.0,30.20,SE,135,0.0,-999.0,96,-99.99,,,0.08,weatherlink.com 1.10,2013-01-12 04:22:00,
2013-01-11 23:37:00,34.6,34.0,30.20,SE,136,0.0,-999.0,96,-99.99,,,0.08,weatherlink.com 1.10,2013-01-12 04:37:00,
2013-01-11 23:52:00,34.7,34.0,30.19,SE,136,0.0,-999.0,96,-99.99,,,0.09,weatherlink.com 1.10,2013-01-12 04:52:00,